Time;durP1;ratioP1;P1;durP2;ratioP2;P2;SDS_P1;SDS_P2;PMS_P1;PMS_P2;Temp;Humidity;BMP_temperature;BMP_pressure;BME280_temperature;BME280_humidity;BME280_pressure;Samples;Min_cycle;Max_cycle;Signal;HPM_P1;HPM_P2
2022/06/21 00:01:11;;;;;;;19.20;13.65;;;;;;;;;;5012495;28;20035;-82
2022/06/21 00:03:37;;;;;;;11.65;8.98;;;;;;;;;;5006172;28;20034;-81
2022/06/21 00:06:03;;;;;;;7.57;5.40;;;;;;;;;;5024559;28;20026;-81
2022/06/21 00:08:31;;;;;;;6.65;4.28;;;;;;;;;;5023219;28;20030;-83
2022/06/21 00:10:57;;;;;;;6.55;4.43;;;;;;;;;;5009268;28;20021;-82
2022/06/21 00:13:25;;;;;;;6.40;4.00;;;;;;;;;;5021736;28;20026;-82
2022/06/21 00:15:54;;;;;;;6.03;3.97;;;;;;;;;;5009449;28;20056;-83
2022/06/21 00:18:21;;;;;;;6.32;4.18;;;;;;;;;;5003857;28;20070;-82
2022/06/21 00:20:48;;;;;;;6.25;3.72;;;;;;;;;;5002501;28;20030;-83
2022/06/21 00:23:16;;;;;;;5.70;4.07;;;;;;;;;;5013076;28;20026;-81
2022/06/21 00:25:42;;;;;;;5.82;3.75;;;;;;;;;;5018716;28;20057;-81
2022/06/21 00:28:08;;;;;;;5.55;3.88;;;;;;;;;;5013277;28;20034;-82
2022/06/21 00:30:34;;;;;;;5.50;3.45;;;;;;;;;;5016020;28;20076;-82
2022/06/21 00:33:00;;;;;;;5.60;3.55;;;;;;;;;;4997900;28;20034;-82
2022/06/21 00:35:27;;;;;;;5.50;4.10;;;;;;;;;;4984364;28;20022;-82
2022/06/21 00:37:53;;;;;;;6.03;3.92;;;;;;;;;;5001966;28;20090;-82
2022/06/21 00:40:22;;;;;;;4.82;3.30;;;;;;;;;;5006116;28;20428;-81
2022/06/21 00:42:53;;;;;;;5.07;3.47;;;;;;;;;;5007337;28;20484;-82
2022/06/21 00:45:31;;;;;;;5.65;3.45;;;;;;;;;;5020439;28;20108;-82
2022/06/21 00:47:59;;;;;;;5.20;3.42;;;;;;;;;;5002306;28;20018;-82
2022/06/21 00:50:28;;;;;;;4.93;3.35;;;;;;;;;;5017756;28;20522;-82
2022/06/21 00:52:57;;;;;;;6.25;4.00;;;;;;;;;;5021650;28;20026;-82
2022/06/21 00:55:33;;;;;;;6.07;3.30;;;;;;;;;;5021675;28;20040;-82
2022/06/21 00:57:59;;;;;;;5.45;3.28;;;;;;;;;;5015781;28;20737;-83
2022/06/21 01:00:25;;;;;;;5.35;3.35;;;;;;;;;;4999855;28;20018;-82
2022/06/21 01:02:52;;;;;;;5.90;3.20;;;;;;;;;;5007599;28;20022;-82
2022/06/21 01:05:18;;;;;;;4.90;3.25;;;;;;;;;;5012730;28;20034;-82
2022/06/21 01:07:46;;;;;;;4.70;3.10;;;;;;;;;;5001651;28;20022;-82
2022/06/21 01:10:15;;;;;;;4.72;3.10;;;;;;;;;;5004564;28;20029;-82
2022/06/21 01:13:07;;;;;;;4.70;3.17;;;;;;;;;;5021857;28;20025;-82
2022/06/21 01:15:36;;;;;;;5.55;3.00;;;;;;;;;;5018520;28;20109;-82
2022/06/21 01:18:04;;;;;;;4.50;2.85;;;;;;;;;;5019503;28;20030;-82
2022/06/21 01:20:32;;;;;;;4.57;2.85;;;;;;;;;;5020048;28;20120;-82
2022/06/21 01:23:04;;;;;;;4.95;3.00;;;;;;;;;;5000705;28;20034;-82
2022/06/21 01:25:44;;;;;;;4.55;2.70;;;;;;;;;;5000006;28;20076;-82
2022/06/21 01:28:11;;;;;;;5.70;2.95;;;;;;;;;;5001316;28;20038;-82
2022/06/21 01:30:37;;;;;;;4.43;2.83;;;;;;;;;;5019143;28;20044;-82
2022/06/21 01:33:04;;;;;;;4.80;3.00;;;;;;;;;;5000952;28;20038;-82
2022/06/21 01:35:51;;;;;;;5.25;2.80;;;;;;;;;;4999897;28;20105;-83
2022/06/21 01:38:20;;;;;;;4.40;2.60;;;;;;;;;;5014471;28;20515;-81
2022/06/21 01:40:49;;;;;;;3.92;2.40;;;;;;;;;;5018300;28;20086;-82
2022/06/21 01:43:17;;;;;;;4.85;2.40;;;;;;;;;;5020185;28;20152;-82
2022/06/21 01:45:45;;;;;;;4.22;2.50;;;;;;;;;;5013528;28;20014;-83
2022/06/21 01:48:16;;;;;;;4.32;2.70;;;;;;;;;;4998720;28;20030;-83
2022/06/21 01:50:44;;;;;;;4.63;2.45;;;;;;;;;;4999463;28;20149;-82
2022/06/21 01:53:10;;;;;;;4.90;2.38;;;;;;;;;;5008505;28;20121;-82
2022/06/21 01:55:52;;;;;;;4.25;2.50;;;;;;;;;;4999403;28;20041;-82
2022/06/21 01:58:19;;;;;;;4.22;2.50;;;;;;;;;;5019255;28;20030;-82
2022/06/21 02:00:49;;;;;;;3.65;2.17;;;;;;;;;;5010315;28;20085;-82
2022/06/21 02:03:18;;;;;;;4.35;2.38;;;;;;;;;;4999972;28;20030;-81
2022/06/21 02:05:50;;;;;;;3.67;2.03;;;;;;;;;;5009621;28;20065;-82
2022/06/21 02:08:20;;;;;;;5.20;1.98;;;;;;;;;;5018945;28;20603;-82
2022/06/21 02:10:48;;;;;;;3.70;2.35;;;;;;;;;;5008353;28;20106;-83
2022/06/21 02:13:14;;;;;;;4.85;2.30;;;;;;;;;;4998538;28;20026;-82
2022/06/21 02:15:51;;;;;;;4.88;2.20;;;;;;;;;;4999530;28;20102;-82
2022/06/21 02:18:17;;;;;;;3.60;2.10;;;;;;;;;;4999006;28;20109;-81
2022/06/21 02:20:53;;;;;;;4.75;2.17;;;;;;;;;;5013240;28;20041;-82
2022/06/21 02:23:22;;;;;;;4.25;2.40;;;;;;;;;;5011773;28;20030;-82
2022/06/21 02:25:49;;;;;;;3.45;2.00;;;;;;;;;;5009704;28;20029;-82
2022/06/21 02:28:17;;;;;;;3.67;2.08;;;;;;;;;;5020023;28;20133;-82
2022/06/21 02:30:44;;;;;;;5.80;2.28;;;;;;;;;;5012499;28;20026;-81
2022/06/21 02:33:13;;;;;;;4.57;2.40;;;;;;;;;;4999329;28;20053;-81
2022/06/21 02:35:42;;;;;;;4.88;2.15;;;;;;;;;;4996658;28;20515;-82
2022/06/21 02:38:11;;;;;;;3.60;2.20;;;;;;;;;;4998702;28;20498;-82
2022/06/21 02:40:44;;;;;;;4.30;2.08;;;;;;;;;;5009405;28;20052;-82
2022/06/21 02:43:13;;;;;;;3.70;1.70;;;;;;;;;;5014539;28;20018;-81
2022/06/21 02:45:39;;;;;;;3.58;1.95;;;;;;;;;;4997358;28;20026;-81
2022/06/21 02:48:09;;;;;;;3.28;1.85;;;;;;;;;;4999189;28;20097;-81
2022/06/21 02:50:43;;;;;;;4.40;1.73;;;;;;;;;;4998344;28;20034;-81
2022/06/21 02:53:18;;;;;;;3.83;1.90;;;;;;;;;;5015066;28;20026;-82
2022/06/21 02:55:48;;;;;;;4.05;1.80;;;;;;;;;;5016481;28;20034;-82
2022/06/21 02:58:19;;;;;;;3.25;1.70;;;;;;;;;;5010865;28;20125;-81
2022/06/21 03:00:46;;;;;;;3.70;1.88;;;;;;;;;;4995721;28;20022;-80
2022/06/21 03:03:18;;;;;;;4.18;1.88;;;;;;;;;;4999058;28;20031;-81
2022/06/21 03:05:45;;;;;;;5.00;1.77;;;;;;;;;;5009377;28;20053;-81
2022/06/21 03:08:11;;;;;;;5.05;2.00;;;;;;;;;;5001800;28;20476;-81
2022/06/21 03:10:41;;;;;;;3.88;2.20;;;;;;;;;;5001877;28;20094;-81
2022/06/21 03:13:11;;;;;;;4.40;1.80;;;;;;;;;;5001079;28;20054;-81
2022/06/21 03:15:37;;;;;;;3.45;1.90;;;;;;;;;;5000662;28;20113;-81
2022/06/21 03:18:12;;;;;;;4.18;2.15;;;;;;;;;;5033005;28;20060;-81
2022/06/21 03:20:39;;;;;;;4.38;2.13;;;;;;;;;;4982921;28;20062;-80
2022/06/21 03:23:06;;;;;;;3.83;2.03;;;;;;;;;;5014008;28;20036;-80
2022/06/21 03:25:41;;;;;;;4.28;2.28;;;;;;;;;;5020520;28;20052;-80
2022/06/21 03:28:26;;;;;;;3.22;1.90;;;;;;;;;;4981422;28;20473;-82
2022/06/21 03:31:01;;;;;;;5.22;2.47;;;;;;;;;;4986590;28;20022;-80
2022/06/21 03:33:27;;;;;;;4.15;2.20;;;;;;;;;;5000829;28;20057;-81
2022/06/21 03:35:53;;;;;;;4.55;2.40;;;;;;;;;;5012399;28;20050;-81
2022/06/21 03:38:19;;;;;;;4.57;2.35;;;;;;;;;;5035066;28;20030;-81
2022/06/21 03:43:34;;;;;;;4.10;2.20;;;;;;;;;;4994080;28;20050;-81
2022/06/21 03:46:03;;;;;;;4.50;2.13;;;;;;;;;;4999107;28;20034;-81
2022/06/21 03:48:34;;;;;;;4.38;1.80;;;;;;;;;;5003252;28;20032;-81
2022/06/21 03:51:03;;;;;;;5.15;2.25;;;;;;;;;;5019224;28;20026;-81
2022/06/21 03:53:32;;;;;;;4.22;2.00;;;;;;;;;;5001401;28;20038;-82
2022/06/21 03:56:04;;;;;;;4.75;2.78;;;;;;;;;;4998698;28;20045;-82
2022/06/21 03:58:46;;;;;;;4.80;1.98;;;;;;;;;;5019661;28;20030;-83
2022/06/21 04:01:21;;;;;;;4.97;2.10;;;;;;;;;;5013833;28;20022;-82
2022/06/21 04:03:57;;;;;;;4.43;1.80;;;;;;;;;;5009815;28;20033;-81
2022/06/21 04:06:23;;;;;;;5.00;1.90;;;;;;;;;;5015436;28;20029;-81
2022/06/21 04:08:55;;;;;;;4.18;2.13;;;;;;;;;;5000343;28;20034;-82
2022/06/21 04:11:26;;;;;;;3.97;2.15;;;;;;;;;;5000048;28;20022;-81
2022/06/21 04:13:52;;;;;;;3.47;2.03;;;;;;;;;;4999192;28;20484;-83
2022/06/21 04:16:25;;;;;;;5.95;2.60;;;;;;;;;;5000359;28;20084;-81
2022/06/21 04:19:03;;;;;;;5.93;2.20;;;;;;;;;;5005938;28;20025;-81
2022/06/21 04:21:39;;;;;;;4.32;2.10;;;;;;;;;;5017921;28;20041;-79
2022/06/21 04:24:14;;;;;;;4.70;1.77;;;;;;;;;;5004842;28;20077;-81
2022/06/21 04:26:49;;;;;;;4.03;1.90;;;;;;;;;;5000161;28;20030;-82
2022/06/21 04:29:18;;;;;;;3.88;1.70;;;;;;;;;;5000466;28;20041;-83
2022/06/21 04:31:51;;;;;;;6.80;3.28;;;;;;;;;;5011491;28;20029;-82
2022/06/21 04:34:27;;;;;;;4.20;2.17;;;;;;;;;;5014521;28;20046;-82
2022/06/21 04:37:03;;;;;;;5.55;2.20;;;;;;;;;;4997554;28;20097;-82
2022/06/21 04:39:32;;;;;;;3.78;1.60;;;;;;;;;;4999176;28;20026;-82
2022/06/21 04:42:01;;;;;;;4.20;2.10;;;;;;;;;;4998320;28;20026;-81
2022/06/21 04:44:51;;;;;;;3.70;1.80;;;;;;;;;;4995868;28;20070;-81
2022/06/21 04:47:44;;;;;;;4.63;2.10;;;;;;;;;;4998793;28;20018;-82
2022/06/21 04:50:17;;;;;;;5.05;2.10;;;;;;;;;;5000676;28;20037;-81
2022/06/21 04:52:49;;;;;;;3.80;1.88;;;;;;;;;;5013233;28;20027;-81
2022/06/21 04:55:16;;;;;;;6.93;2.20;;;;;;;;;;4998711;28;20041;-82
2022/06/21 04:57:43;;;;;;;4.32;2.00;;;;;;;;;;5018180;28;20100;-80
2022/06/21 05:00:13;;;;;;;4.50;2.17;;;;;;;;;;5017368;28;20056;-83
2022/06/21 05:02:41;;;;;;;5.28;2.53;;;;;;;;;;4999843;28;20026;-81
2022/06/21 05:05:16;;;;;;;5.47;2.10;;;;;;;;;;5000586;28;20026;-79
2022/06/21 05:07:45;;;;;;;4.05;1.92;;;;;;;;;;4999444;28;20027;-81
2022/06/21 05:10:18;;;;;;;4.30;1.98;;;;;;;;;;4999877;28;20026;-82
2022/06/21 05:12:45;;;;;;;4.72;2.30;;;;;;;;;;5000783;28;20130;-80
2022/06/21 05:15:22;;;;;;;4.57;2.10;;;;;;;;;;4996774;28;20577;-81
2022/06/21 05:17:53;;;;;;;4.25;1.95;;;;;;;;;;4998189;28;20031;-79
2022/06/21 05:20:21;;;;;;;4.97;2.08;;;;;;;;;;4995322;28;20400;-81
2022/06/21 05:22:49;;;;;;;7.80;2.70;;;;;;;;;;4996794;28;20049;-79
2022/06/21 05:25:36;;;;;;;5.20;2.33;;;;;;;;;;5013587;28;20030;-80
2022/06/21 05:28:10;;;;;;;5.20;2.17;;;;;;;;;;4995918;28;20035;-80
2022/06/21 05:30:36;;;;;;;3.30;1.88;;;;;;;;;;5002664;28;20022;-82
2022/06/21 05:33:06;;;;;;;4.90;2.15;;;;;;;;;;5010437;28;20065;-83
2022/06/21 05:35:36;;;;;;;4.70;2.20;;;;;;;;;;4997474;28;20076;-80
2022/06/21 05:38:07;;;;;;;5.75;2.40;;;;;;;;;;4996018;28;20518;-83
2022/06/21 05:40:37;;;;;;;6.03;2.55;;;;;;;;;;5000579;28;20117;-81
2022/06/21 05:43:04;;;;;;;4.03;1.95;;;;;;;;;;5011873;28;20109;-81
2022/06/21 05:45:32;;;;;;;4.78;2.33;;;;;;;;;;5000695;28;20030;-82
2022/06/21 05:48:00;;;;;;;4.70;2.20;;;;;;;;;;4998157;28;20022;-83
2022/06/21 05:50:31;;;;;;;4.05;1.80;;;;;;;;;;4996258;28;20038;-82
2022/06/21 05:52:58;;;;;;;5.80;2.28;;;;;;;;;;4993837;28;20022;-82
2022/06/21 05:55:35;;;;;;;4.47;2.13;;;;;;;;;;5000947;28;20056;-82
2022/06/21 05:58:04;;;;;;;4.82;2.10;;;;;;;;;;4988452;28;20057;-82
2022/06/21 06:00:44;;;;;;;4.22;2.17;;;;;;;;;;4995623;28;20030;-84
2022/06/21 06:03:13;;;;;;;3.70;2.10;;;;;;;;;;4999380;28;20022;-82
2022/06/21 06:05:39;;;;;;;4.93;2.60;;;;;;;;;;4998599;28;20022;-82
2022/06/21 06:08:10;;;;;;;7.35;2.78;;;;;;;;;;4998529;28;20026;-83
2022/06/21 06:10:37;;;;;;;10.02;2.50;;;;;;;;;;5005430;28;20595;-82
2022/06/21 06:13:09;;;;;;;5.45;2.40;;;;;;;;;;5000661;28;20031;-82
2022/06/21 06:15:41;;;;;;;5.07;2.70;;;;;;;;;;4999660;28;20030;-82
2022/06/21 06:18:07;;;;;;;8.05;2.58;;;;;;;;;;4998349;28;20029;-83
2022/06/21 06:20:59;;;;;;;8.20;2.65;;;;;;;;;;4998534;28;20035;-81
2022/06/21 06:23:39;;;;;;;5.85;2.50;;;;;;;;;;4997562;28;20045;-82
2022/06/21 06:26:07;;;;;;;9.55;2.53;;;;;;;;;;4993441;28;20065;-81
2022/06/21 06:28:40;;;;;;;5.85;2.72;;;;;;;;;;4996290;28;20033;-83
2022/06/21 06:31:09;;;;;;;4.00;2.30;;;;;;;;;;4998420;28;20450;-82
2022/06/21 06:33:38;;;;;;;6.18;2.40;;;;;;;;;;4998266;28;20030;-81
2022/06/21 06:36:08;;;;;;;5.15;2.30;;;;;;;;;;4999917;28;20026;-83
2022/06/21 06:38:35;;;;;;;5.72;2.55;;;;;;;;;;4997776;28;20030;-83
2022/06/21 06:41:13;;;;;;;5.95;2.33;;;;;;;;;;4997188;28;20451;-83
2022/06/21 06:43:50;;;;;;;5.72;2.47;;;;;;;;;;5012012;28;20080;-81
2022/06/21 06:46:24;;;;;;;7.32;2.63;;;;;;;;;;5012933;28;20037;-83
2022/06/21 06:48:51;;;;;;;5.70;2.53;;;;;;;;;;5005392;28;20034;-81
2022/06/21 06:51:17;;;;;;;4.80;2.42;;;;;;;;;;5000937;28;20042;-82
2022/06/21 06:53:50;;;;;;;5.20;2.22;;;;;;;;;;5015270;28;20022;-82
2022/06/21 06:56:18;;;;;;;8.00;2.47;;;;;;;;;;5014143;28;20030;-82
2022/06/21 06:58:44;;;;;;;5.57;2.30;;;;;;;;;;4997843;28;20034;-84
2022/06/21 07:01:15;;;;;;;5.38;2.47;;;;;;;;;;4994671;28;20521;-82
2022/06/21 07:03:47;;;;;;;6.22;2.38;;;;;;;;;;4999918;28;20023;-82
2022/06/21 07:06:16;;;;;;;4.90;2.58;;;;;;;;;;4995998;28;20026;-83
2022/06/21 07:08:52;;;;;;;6.60;2.20;;;;;;;;;;5007845;28;20034;-82
2022/06/21 07:11:30;;;;;;;4.95;2.35;;;;;;;;;;4997759;28;20030;-84
2022/06/21 07:13:57;;;;;;;4.60;2.45;;;;;;;;;;4995663;28;20496;-84
2022/06/21 07:16:24;;;;;;;6.50;2.58;;;;;;;;;;4996750;28;20490;-85
2022/06/21 07:18:52;;;;;;;6.93;2.35;;;;;;;;;;4994725;28;20034;-84
2022/06/21 07:21:19;;;;;;;6.32;2.67;;;;;;;;;;4995933;28;20089;-84
2022/06/21 07:23:45;;;;;;;5.30;2.72;;;;;;;;;;4995124;28;20033;-83
2022/06/21 07:26:22;;;;;;;5.88;2.50;;;;;;;;;;4995429;28;20042;-84
2022/06/21 07:28:50;;;;;;;5.53;2.50;;;;;;;;;;4994544;28;20030;-83
2022/06/21 07:31:19;;;;;;;6.22;2.58;;;;;;;;;;4994090;28;20085;-83
2022/06/21 07:33:58;;;;;;;6.28;2.50;;;;;;;;;;4988721;28;20101;-84
2022/06/21 07:36:53;;;;;;;5.57;2.38;;;;;;;;;;4995431;28;20097;-83
2022/06/21 07:39:25;;;;;;;5.57;2.60;;;;;;;;;;4977465;28;20038;-85
2022/06/21 07:41:54;;;;;;;5.07;2.40;;;;;;;;;;4993457;28;20025;-84
2022/06/21 07:44:30;;;;;;;4.47;2.70;;;;;;;;;;4985022;28;20038;-83
2022/06/21 07:46:59;;;;;;;4.65;2.13;;;;;;;;;;4985983;28;20647;-84
2022/06/21 07:49:27;;;;;;;6.63;2.20;;;;;;;;;;4990591;28;20628;-81
2022/06/21 07:51:57;;;;;;;5.10;2.47;;;;;;;;;;4994759;28;20029;-81
2022/06/21 07:54:27;;;;;;;5.45;2.30;;;;;;;;;;5001148;28;20026;-83
2022/06/21 07:56:55;;;;;;;6.20;2.78;;;;;;;;;;4998479;28;20030;-84
2022/06/21 07:59:24;;;;;;;6.18;2.70;;;;;;;;;;4999818;28;20030;-85
2022/06/21 08:07:56;;;;;;;4.70;2.30;;;;;;;;;;5008732;28;20076;-85
2022/06/21 08:10:48;;;;;;;4.30;2.20;;;;;;;;;;5007100;28;20553;-84
2022/06/21 08:13:17;;;;;;;5.60;2.60;;;;;;;;;;4993852;28;20046;-86
2022/06/21 08:15:46;;;;;;;5.47;2.72;;;;;;;;;;4996551;28;20031;-85
2022/06/21 08:18:30;;;;;;;4.30;2.47;;;;;;;;;;4999061;28;20018;-85
2022/06/21 08:21:01;;;;;;;4.72;2.45;;;;;;;;;;5000667;28;20027;-84
2022/06/21 08:23:27;;;;;;;6.78;2.60;;;;;;;;;;4998576;28;20029;-83
2022/06/21 08:25:53;;;;;;;4.30;2.40;;;;;;;;;;4997860;28;20022;-83
2022/06/21 08:28:40;;;;;;;5.47;2.17;;;;;;;;;;5005702;28;20023;-84
2022/06/21 08:31:09;;;;;;;4.93;2.55;;;;;;;;;;4998854;28;20112;-84
2022/06/21 08:33:49;;;;;;;4.88;2.10;;;;;;;;;;4995908;28;20092;-84
2022/06/21 08:36:18;;;;;;;5.68;2.50;;;;;;;;;;4997228;28;20500;-84
2022/06/21 08:38:58;;;;;;;5.35;2.30;;;;;;;;;;5004726;28;20285;-85
2022/06/21 08:41:57;;;;;;;4.85;2.17;;;;;;;;;;5014521;28;20492;-85
2022/06/21 08:44:26;;;;;;;4.13;2.30;;;;;;;;;;4980051;28;20129;-83
2022/06/21 08:47:05;;;;;;;5.25;2.30;;;;;;;;;;4998684;28;20014;-84
2022/06/21 08:49:35;;;;;;;6.03;2.15;;;;;;;;;;5015278;28;20034;-84
2022/06/21 08:52:30;;;;;;;9.38;2.47;;;;;;;;;;5004484;28;20488;-83
2022/06/21 08:55:00;;;;;;;3.90;2.10;;;;;;;;;;5009277;28;20559;-83
2022/06/21 08:57:29;;;;;;;5.03;2.30;;;;;;;;;;5006461;28;20040;-85
2022/06/21 09:00:28;;;;;;;7.57;2.38;;;;;;;;;;5015427;28;20030;-85
2022/06/21 09:02:55;;;;;;;5.35;2.08;;;;;;;;;;4981824;28;20046;-84
2022/06/21 09:05:22;;;;;;;5.00;2.10;;;;;;;;;;4977905;28;20411;-83
2022/06/21 09:07:51;;;;;;;5.28;2.10;;;;;;;;;;4976863;28;20050;-85
2022/06/21 09:10:20;;;;;;;4.68;2.20;;;;;;;;;;4968690;28;20035;-85
2022/06/21 09:12:46;;;;;;;5.13;2.30;;;;;;;;;;4960181;28;20063;-86
2022/06/21 09:15:33;;;;;;;5.25;2.00;;;;;;;;;;4962450;28;20148;-84
2022/06/21 09:18:11;;;;;;;5.32;2.10;;;;;;;;;;4962288;28;20142;-82
2022/06/21 09:20:44;;;;;;;4.40;1.98;;;;;;;;;;4975179;28;20041;-84
2022/06/21 09:23:29;;;;;;;5.38;2.33;;;;;;;;;;4977665;28;20039;-83
2022/06/21 09:26:04;;;;;;;5.00;2.03;;;;;;;;;;4957813;28;20039;-84
2022/06/21 09:28:41;;;;;;;7.15;2.00;;;;;;;;;;4955952;29;20031;-83
2022/06/21 09:31:26;;;;;;;6.80;1.98;;;;;;;;;;4965653;28;20035;-82
2022/06/21 09:33:58;;;;;;;5.68;1.75;;;;;;;;;;4955159;28;20066;-83
2022/06/21 09:36:29;;;;;;;4.70;2.00;;;;;;;;;;4972331;28;20412;-84
2022/06/21 09:39:14;;;;;;;7.63;1.92;;;;;;;;;;4996585;28;20045;-85
2022/06/21 09:41:40;;;;;;;4.50;1.83;;;;;;;;;;4997323;28;20049;-85
2022/06/21 09:44:12;;;;;;;5.47;1.90;;;;;;;;;;4998582;28;20026;-82
2022/06/21 09:46:38;;;;;;;3.83;1.98;;;;;;;;;;4998862;28;20035;-83
2022/06/21 09:49:23;;;;;;;4.57;1.75;;;;;;;;;;5000685;28;20101;-83
2022/06/21 09:51:49;;;;;;;4.22;1.70;;;;;;;;;;5018143;28;20511;-84
2022/06/21 09:54:21;;;;;;;3.80;1.70;;;;;;;;;;5018944;28;20034;-85
2022/06/21 09:56:48;;;;;;;6.85;2.38;;;;;;;;;;5009893;28;20023;-84
2022/06/21 09:59:23;;;;;;;6.18;1.90;;;;;;;;;;4998264;28;20034;-82
2022/06/21 10:02:10;;;;;;;4.13;2.17;;;;;;;;;;5000724;28;20133;-85
2022/06/21 10:04:49;;;;;;;4.03;1.65;;;;;;;;;;5004151;28;20065;-83
2022/06/21 10:07:22;;;;;;;5.32;1.88;;;;;;;;;;5026758;28;20010;-82
2022/06/21 10:09:48;;;;;;;4.25;1.75;;;;;;;;;;5035720;28;20037;-83
2022/06/21 10:12:31;;;;;;;5.85;1.90;;;;;;;;;;5027258;28;20026;-85
2022/06/21 10:15:16;;;;;;;3.78;2.00;;;;;;;;;;5018641;28;20022;-84
2022/06/21 10:17:54;;;;;;;5.00;1.90;;;;;;;;;;4980038;28;20144;-85
2022/06/21 10:20:23;;;;;;;4.45;1.70;;;;;;;;;;5005738;28;20087;-83
2022/06/21 10:22:52;;;;;;;3.10;1.42;;;;;;;;;;5009241;28;20042;-83
2022/06/21 10:25:21;;;;;;;4.32;1.80;;;;;;;;;;5010605;28;20030;-84
2022/06/21 10:28:05;;;;;;;4.13;2.05;;;;;;;;;;5023325;28;20025;-82
2022/06/21 10:30:50;;;;;;;4.93;2.78;;;;;;;;;;5021923;28;20040;-86
2022/06/21 10:33:16;;;;;;;3.25;1.60;;;;;;;;;;5015551;28;20411;-83
2022/06/21 10:35:45;;;;;;;4.50;1.73;;;;;;;;;;4999324;28;20500;-84
2022/06/21 10:38:30;;;;;;;7.10;1.88;;;;;;;;;;4998445;28;20035;-84
2022/06/21 10:40:58;;;;;;;6.15;1.70;;;;;;;;;;5001811;28;20030;-84
2022/06/21 10:43:28;;;;;;;5.05;1.98;;;;;;;;;;5005720;28;20037;-83
2022/06/21 10:46:01;;;;;;;5.38;1.80;;;;;;;;;;5014643;28;20029;-83
2022/06/21 10:48:36;;;;;;;3.80;2.00;;;;;;;;;;5018303;28;20581;-84
2022/06/21 10:51:16;;;;;;;3.70;1.55;;;;;;;;;;5020252;28;20061;-84
2022/06/21 10:53:57;;;;;;;6.32;2.00;;;;;;;;;;4996616;28;20038;-83
2022/06/21 10:59:27;;;;;;;3.75;1.70;;;;;;;;;;5023688;28;20080;-83
2022/06/21 11:02:01;;;;;;;4.07;2.00;;;;;;;;;;5020874;28;20018;-84
2022/06/21 11:04:28;;;;;;;4.25;1.83;;;;;;;;;;5017707;28;20029;-83
2022/06/21 11:07:04;;;;;;;5.18;1.75;;;;;;;;;;4979411;28;20026;-85
2022/06/21 11:09:36;;;;;;;4.82;1.98;;;;;;;;;;4983546;28;20548;-84
2022/06/21 11:12:52;;;;;;;4.90;1.90;;;;;;;;;;4998180;28;20153;-84
2022/06/21 11:15:00;;;;;;;4.57;1.90;;;;;;;;;;4996909;28;20027;-85
2022/06/21 11:17:27;;;;;;;5.28;1.98;;;;;;;;;;4999392;28;20078;-84
2022/06/21 11:20:07;;;;;;;4.65;1.70;;;;;;;;;;5012063;28;20094;-84
2022/06/21 11:22:33;;;;;;;3.67;1.80;;;;;;;;;;5014566;28;20030;-83
2022/06/21 11:25:11;;;;;;;4.82;1.85;;;;;;;;;;5006961;28;20026;-83
2022/06/21 11:27:40;;;;;;;4.68;2.42;;;;;;;;;;4998785;28;20034;-84
2022/06/21 11:30:09;;;;;;;3.78;2.00;;;;;;;;;;5016821;28;20026;-84
2022/06/21 11:32:38;;;;;;;5.75;2.15;;;;;;;;;;5023236;28;20049;-83
2022/06/21 11:35:04;;;;;;;11.38;2.85;;;;;;;;;;5024556;28;20038;-83
2022/06/21 11:37:42;;;;;;;4.10;2.20;;;;;;;;;;5021638;28;20033;-84
2022/06/21 11:40:27;;;;;;;5.05;1.83;;;;;;;;;;5022932;28;20038;-84
2022/06/21 11:42:54;;;;;;;4.93;1.90;;;;;;;;;;5019785;28;20140;-85
2022/06/21 11:45:35;;;;;;;3.45;1.70;;;;;;;;;;5004106;28;20038;-85
2022/06/21 11:48:23;;;;;;;4.05;1.88;;;;;;;;;;5003253;28;20033;-85
2022/06/21 11:51:11;;;;;;;6.20;1.95;;;;;;;;;;5005360;28;20049;-84
2022/06/21 11:53:55;;;;;;;4.20;2.00;;;;;;;;;;5007156;28;20097;-82
2022/06/21 11:56:31;;;;;;;4.50;1.90;;;;;;;;;;5008878;28;20092;-85
2022/06/21 11:59:13;;;;;;;3.67;1.80;;;;;;;;;;5024871;28;20052;-82
2022/06/21 12:01:44;;;;;;;5.77;1.87;;;;;;;;;;5022118;28;20038;-83
2022/06/21 12:04:29;;;;;;;4.65;1.77;;;;;;;;;;5018919;28;20384;-84
2022/06/21 12:07:08;;;;;;;3.95;1.90;;;;;;;;;;5006996;28;20065;-83
2022/06/21 12:09:43;;;;;;;5.47;2.00;;;;;;;;;;5007079;28;20039;-82
2022/06/21 12:12:26;;;;;;;4.20;1.58;;;;;;;;;;5006801;28;20061;-83
2022/06/21 12:14:52;;;;;;;;;;;;;;;;;;5009356;28;20026;-82
2022/06/21 12:17:23;;;;;;;5.10;2.03;;;;;;;;;;5007603;28;19916;-82
2022/06/21 12:19:52;;;;;;;5.95;1.90;;;;;;;;;;5001575;28;20070;-82
2022/06/21 12:22:18;;;;;;;4.57;1.73;;;;;;;;;;5005083;28;20030;-85
2022/06/21 12:24:44;;;;;;;4.82;2.08;;;;;;;;;;5005097;28;20023;-83
2022/06/21 12:27:11;;;;;;;4.95;1.95;;;;;;;;;;4992887;28;20031;-83
2022/06/21 12:29:37;;;;;;;3.72;1.65;;;;;;;;;;4995744;28;20030;-83
2022/06/21 12:32:05;;;;;;;4.20;1.70;;;;;;;;;;5024230;28;20033;-83
2022/06/21 12:34:31;;;;;;;5.05;2.10;;;;;;;;;;5024938;28;20081;-84
2022/06/21 12:37:09;;;;;;;5.05;2.00;;;;;;;;;;5022975;28;20022;-83
2022/06/21 12:39:58;;;;;;;5.30;2.05;;;;;;;;;;5020845;28;20092;-87
2022/06/21 12:42:25;;;;;;;4.32;1.58;;;;;;;;;;5018785;28;20053;-84
2022/06/21 12:45:10;;;;;;;4.07;1.67;;;;;;;;;;5019780;28;20085;-84
2022/06/21 12:48:12;;;;;;;3.80;1.52;;;;;;;;;;5021593;28;20030;-87
2022/06/21 12:50:46;;;;;;;5.45;1.70;;;;;;;;;;4925350;29;20036;-84
2022/06/21 12:53:19;;;;;;;4.70;1.90;;;;;;;;;;4925337;29;20040;-83
2022/06/21 12:55:54;;;;;;;3.35;1.60;;;;;;;;;;4927198;29;20514;-83
2022/06/21 12:58:35;;;;;;;4.30;1.67;;;;;;;;;;4918885;29;20075;-84
2022/06/21 13:01:05;;;;;;;4.53;1.90;;;;;;;;;;4926780;29;20043;-84
2022/06/21 13:03:52;;;;;;;4.65;1.60;;;;;;;;;;4926963;29;20034;-86
2022/06/21 13:06:30;;;;;;;6.63;1.70;;;;;;;;;;4929741;29;20072;-84
2022/06/21 13:09:10;;;;;;;5.07;1.80;;;;;;;;;;4946970;29;20050;-83
2022/06/21 13:11:54;;;;;;;4.13;1.65;;;;;;;;;;4942668;29;20040;-83
2022/06/21 13:14:38;;;;;;;4.13;2.10;;;;;;;;;;4937687;29;20459;-84
2022/06/21 13:17:04;;;;;;;4.07;1.52;;;;;;;;;;4908948;29;20399;-84
2022/06/21 13:19:30;;;;;;;4.38;1.60;;;;;;;;;;4920909;29;20079;-84
2022/06/21 13:22:05;;;;;;;3.63;1.67;;;;;;;;;;4936915;29;20038;-83
2022/06/21 13:24:31;;;;;;;3.22;1.50;;;;;;;;;;4996611;28;20105;-83
2022/06/21 13:27:09;;;;;;;4.38;1.60;;;;;;;;;;5024315;28;20026;-82
2022/06/21 13:29:36;;;;;;;3.70;1.60;;;;;;;;;;5018877;28;20034;-84
2022/06/21 13:32:06;;;;;;;4.20;1.40;;;;;;;;;;5023891;28;20438;-84
2022/06/21 13:34:47;;;;;;;4.78;1.48;;;;;;;;;;5022011;28;20058;-83
2022/06/21 13:37:21;;;;;;;3.93;1.63;;;;;;;;;;5001645;28;20026;-83
2022/06/21 13:40:06;;;;;;;4.32;2.00;;;;;;;;;;5000880;28;20030;-84
2022/06/21 13:42:49;;;;;;;5.45;2.08;;;;;;;;;;5021594;28;20427;-85
2022/06/21 13:45:31;;;;;;;5.47;1.98;;;;;;;;;;5028794;28;20026;-82
2022/06/21 13:48:13;;;;;;;3.67;1.33;;;;;;;;;;5024536;28;20424;-83
2022/06/21 13:50:48;;;;;;;3.60;1.50;;;;;;;;;;5025155;28;20026;-83
2022/06/21 13:53:17;;;;;;;3.47;1.40;;;;;;;;;;5025077;28;20033;-83
2022/06/21 13:55:44;;;;;;;4.07;1.45;;;;;;;;;;5024182;28;20091;-83
2022/06/21 13:58:14;;;;;;;3.78;1.52;;;;;;;;;;5019529;28;20025;-84
2022/06/21 14:01:05;;;;;;;3.47;1.50;;;;;;;;;;5012941;28;20026;-83
2022/06/21 14:03:50;;;;;;;3.60;1.45;;;;;;;;;;4994326;28;20031;-80
2022/06/21 14:06:38;;;;;;;4.00;1.60;;;;;;;;;;5000306;28;20038;-85
2022/06/21 14:09:10;;;;;;;4.15;1.80;;;;;;;;;;4999830;28;20030;-85
2022/06/21 14:11:43;;;;;;;4.30;1.45;;;;;;;;;;5004745;28;20085;-83
2022/06/21 14:14:28;;;;;;;3.95;1.40;;;;;;;;;;5004408;28;20030;-84
2022/06/21 14:16:57;;;;;;;3.85;1.50;;;;;;;;;;5015213;28;20038;-83
2022/06/21 14:19:42;;;;;;;5.88;1.73;;;;;;;;;;4997421;28;20030;-82
2022/06/21 14:22:12;;;;;;;6.63;1.60;;;;;;;;;;5025629;28;20034;-83
2022/06/21 14:24:44;;;;;;;4.57;1.85;;;;;;;;;;5022279;28;20040;-83
2022/06/21 14:27:16;;;;;;;2.92;1.38;;;;;;;;;;5024961;28;20231;-84
2022/06/21 14:29:45;;;;;;;4.18;1.60;;;;;;;;;;5019410;28;20030;-84
2022/06/21 14:32:20;;;;;;;3.20;1.27;;;;;;;;;;4998477;28;20034;-83
2022/06/21 14:34:55;;;;;;;3.95;1.60;;;;;;;;;;5019756;28;20049;-84
2022/06/21 14:37:29;;;;;;;3.08;1.50;;;;;;;;;;5001373;28;20037;-84
2022/06/21 14:40:14;;;;;;;4.90;1.60;;;;;;;;;;5004771;28;20030;-84
2022/06/21 14:42:43;;;;;;;5.70;1.70;;;;;;;;;;5011179;28;20030;-83
2022/06/21 14:45:18;;;;;;;3.22;1.40;;;;;;;;;;5003072;28;20057;-84
2022/06/21 14:48:03;;;;;;;4.05;1.60;;;;;;;;;;5001635;28;20117;-83
2022/06/21 14:50:40;;;;;;;4.47;1.60;;;;;;;;;;4999666;28;20037;-84
2022/06/21 14:53:09;;;;;;;3.50;1.40;;;;;;;;;;5003964;28;20034;-83
2022/06/21 14:55:48;;;;;;;3.53;1.60;;;;;;;;;;5021147;28;20053;-84
2022/06/21 14:58:17;;;;;;;3.75;1.40;;;;;;;;;;5008552;28;20042;-84
2022/06/21 15:00:49;;;;;;;3.10;1.55;;;;;;;;;;5017876;28;20033;-83
2022/06/21 15:03:28;;;;;;;3.75;1.40;;;;;;;;;;5005385;28;20684;-84
2022/06/21 15:05:57;;;;;;;4.18;1.88;;;;;;;;;;5008322;28;20030;-84
2022/06/21 15:08:32;;;;;;;4.45;1.60;;;;;;;;;;5005182;28;20026;-83
2022/06/21 15:11:04;;;;;;;3.50;1.30;;;;;;;;;;5021907;28;20034;-83
2022/06/21 15:13:32;;;;;;;3.58;1.45;;;;;;;;;;4995535;28;20034;-83
2022/06/21 15:15:59;;;;;;;3.20;1.30;;;;;;;;;;5008139;28;20022;-84
2022/06/21 15:18:37;;;;;;;3.92;1.77;;;;;;;;;;5010901;28;20057;-84
2022/06/21 15:21:15;;;;;;;4.13;1.70;;;;;;;;;;5005360;28;20373;-83
2022/06/21 15:23:45;;;;;;;3.92;1.60;;;;;;;;;;5007300;28;20034;-84
2022/06/21 15:26:23;;;;;;;7.07;1.75;;;;;;;;;;4998678;28;20026;-83
2022/06/21 15:28:51;;;;;;;3.72;1.70;;;;;;;;;;5005080;28;20121;-83